sim
Sign-in with your pilot id or email,
or register
Callsign
Passwort

Schedule Details

Flight Number: DLH2218
Departure: Munich Airport (EDDM) at 09:30
Arrival: Toulouse Blagnac Airport (LFBO) at 11:20
Route: Lufthansa Passenger Schedule. Enter filed route here before submitting Pirep.

Weather Information
Getting current METAR information for EDDM 220050Z VRB01KT 5000 1200N R08L/0800D R08R/P2000N BCFG NSC 08/08 Q1015 TEMPO 2500
Getting current METAR information for LFBO 220100Z AUTO 24006KT 9999 BKN010 BKN020 OVC049 18/16 Q1016 NOSIG

Schedule Frequency

Route Map